Featured Flight

MET332 - Boston to Los Angeles

Airbus A321-232
657MT - Sharklet Equipped
5 hrs 40 mins
2267 nm
Scheduled - Daily

Bid/PiRep Status

Bid was submitted on Jan 10 2017.

No PiRep on file for this bid.

Departure

Departing from
Boston (BOS)
Departure gate
Scheduled Departure
GMT 1100
Local 0700

Arrival

Arriving at
Los Angeles (LAX)
Arrival gate
Scheduled Arrival
GMT 1640
Local 0940
METAR KLAX 170253Z 27011KT 10SM FEW014 19/17 A2994 RMK AO2 SLP135 T01940167 55002
TAF KLAX 170029Z 1700/1806 27013KT P6SM FEW010 FM170600 26008KT P6SM BKN015 FM171100 12005KT P6SM OVC021 FM171700 26007KT P6SM SCT025 FM172100 26013KT P6SM SKC FM180400 27007KT P6SM SKC

Route Map

Planning Resources

GLYDE BAF J77 SAX J60 ETX RAV J64 MAINE J64 LMN J64 HEC ZIGGY4
MHT SYR J547 BUF J94 ECK J16 MCW J148 ONL J114 DVV HBU J128 TBC J64 HEC ZIGGY4
GLYDE BAF J77 SAX J80 ETX J60 DJB J60 IOW LNK J60 BCE J60 HEC ZIGGY4
LOGAN4 CTR HEC ZIGGY4
MHT CAM SYR BUF J16 BAE ONL DVV HEC ZIGGY4
Route:
OFP Layout:
Units:
Detailed Navlog:
ETOPS Planning:
Plan Stepclimbs:
Runway Analysis:
Include NOTAMS:
FIR NOTAMS:
Flight Maps:

Return Flights

MET331
Airbus A321-232
1730 GMT
MET335
Airbus A321-232
0530 GMT
MET338
Airbus A321-232
1450 GMT
MET339
Airbus A330-243
1645 GMT
MET348
Airbus A321-232
0430 GMT
MET603
Boeing 787-8
1900 GMT

Popularity

Hub Current Bids PiReps this month Total PiReps
KMCI 0 0 1
KLAX 0 0 0
KBOS 0 0 0